Terminal Aerodrome Forecast
Issued by NWS Wilmington, OH

Current Version | Previous Version | Graphics & Text | Print | Product List | Glossary Off
Versions: 1 2 3 4 5 6 7 8 9 10 11 12 13 14 15 16 17 18 19 20 21

000
FTUS41 KILN 212300
TAFILN
TAF
KILN 212333Z 2200/2224 00000KT P6SM FEW250
     FM220600 17008KT P6SM OVC050
      TEMPO 2210/2213 -FZRA OVC040
     FM221400 19012G20KT P6SM BKN050=

USA.gov is the U.S. government's official web portal to all federal, state and local government web resources and services.